Time;durP1;ratioP1;P1;durP2;ratioP2;P2;SDS_P1;SDS_P2;PMS_P1;PMS_P2;Temp;Humidity;BMP_temperature;BMP_pressure;BME280_temperature;BME280_humidity;BME280_pressure;Samples;Min_cycle;Max_cycle;Signal;HPM_P1;HPM_P2
2023/05/25 00:00:09;;;;;;;17.85;4.53;;;12.00;99.90;;;;;;4998272;28;20108;-74
2023/05/25 00:02:35;;;;;;;15.32;4.28;;;12.10;99.90;;;;;;4998245;28;20103;-74
2023/05/25 00:05:01;;;;;;;7.53;3.85;;;12.10;99.90;;;;;;4999078;28;20022;-74
2023/05/25 00:07:27;;;;;;;11.77;4.35;;;12.20;99.90;;;;;;4998276;28;20117;-74
2023/05/25 00:09:53;;;;;;;13.73;4.78;;;12.10;99.90;;;;;;4998204;28;20125;-74
2023/05/25 00:12:18;;;;;;;10.48;5.20;;;12.00;99.90;;;;;;4998523;28;20046;-74
2023/05/25 00:14:44;;;;;;;14.90;4.22;;;12.00;99.90;;;;;;4998928;28;20030;-74
2023/05/25 00:17:10;;;;;;;13.35;4.60;;;12.00;99.90;;;;;;4997813;28;20049;-74
2023/05/25 00:19:41;;;;;;;17.70;5.32;;;11.90;99.90;;;;;;4998796;28;20029;-74
2023/05/25 00:22:10;;;;;;;15.02;4.45;;;11.90;99.90;;;;;;4998428;28;20034;-72
2023/05/25 00:24:35;;;;;;;13.43;4.75;;;11.90;99.90;;;;;;4998116;28;20041;-72
2023/05/25 00:27:02;;;;;;;13.02;4.45;;;11.60;99.90;;;;;;4998099;28;20138;-72
2023/05/25 00:29:28;;;;;;;11.18;3.85;;;11.60;99.90;;;;;;4997779;28;20053;-72
2023/05/25 00:31:54;;;;;;;21.88;4.93;;;11.70;99.90;;;;;;4998023;28;20114;-72
2023/05/25 00:34:20;;;;;;;13.52;4.90;;;11.60;99.90;;;;;;4998621;28;20058;-72
2023/05/25 00:36:47;;;;;;;10.48;3.92;;;11.20;99.90;;;;;;4997926;28;20041;-72
2023/05/25 00:39:17;;;;;;;12.82;4.63;;;11.20;99.90;;;;;;4997934;28;20113;-72
2023/05/25 00:41:44;;;;;;;17.70;3.78;;;11.20;99.90;;;;;;4998165;28;20022;-72
2023/05/25 00:44:13;;;;;;;14.88;4.57;;;11.20;99.90;;;;;;4997883;28;20023;-72
2023/05/25 00:46:44;;;;;;;11.90;4.47;;;11.00;99.90;;;;;;4997530;28;20093;-72
2023/05/25 00:49:13;;;;;;;15.32;5.60;;;11.10;99.90;;;;;;4997450;28;20023;-72
2023/05/25 00:51:40;;;;;;;13.95;4.38;;;11.10;99.90;;;;;;4997357;28;20049;-72
2023/05/25 00:54:06;;;;;;;14.50;4.78;;;11.20;99.90;;;;;;4997659;28;20035;-72
2023/05/25 00:56:34;;;;;;;11.85;4.30;;;11.00;99.90;;;;;;4997604;28;20023;-72
2023/05/25 00:59:04;;;;;;;15.15;5.00;;;11.10;99.90;;;;;;4997536;28;20032;-72
2023/05/25 01:01:38;;;;;;;11.75;4.32;;;11.10;99.90;;;;;;4997060;28;20037;-72
2023/05/25 01:04:06;;;;;;;16.48;5.22;;;11.20;99.90;;;;;;4997201;28;20031;-72
2023/05/25 01:06:33;;;;;;;16.23;5.25;;;11.20;99.90;;;;;;4997120;28;20030;-72
2023/05/25 01:09:06;;;;;;;13.25;4.90;;;11.20;99.90;;;;;;4997310;28;20092;-72
2023/05/25 01:11:35;;;;;;;12.98;4.93;;;11.30;99.90;;;;;;4998063;28;20028;-72
2023/05/25 01:14:01;;;;;;;15.15;4.63;;;11.30;99.90;;;;;;4997850;28;20022;-72
2023/05/25 01:16:28;;;;;;;9.50;4.07;;;11.40;99.90;;;;;;4997952;28;20030;-72
2023/05/25 01:18:54;;;;;;;9.68;4.05;;;11.50;99.90;;;;;;4996947;28;20050;-72
2023/05/25 01:21:44;;;;;;;14.55;4.65;;;11.50;99.90;;;;;;4996611;28;20086;-72
2023/05/25 01:24:31;;;;;;;16.10;4.13;;;11.30;99.90;;;;;;4996930;28;20029;-72
2023/05/25 01:27:06;;;;;;;13.18;5.45;;;11.30;99.90;;;;;;4998330;28;20027;-72
2023/05/25 01:29:33;;;;;;;17.90;5.25;;;11.40;99.90;;;;;;4997232;28;20085;-72
2023/05/25 01:32:01;;;;;;;18.35;5.90;;;11.50;99.90;;;;;;4996752;28;20022;-72
2023/05/25 01:34:28;;;;;;;21.63;5.57;;;11.50;99.90;;;;;;4997091;28;20053;-72
2023/05/25 01:36:55;;;;;;;18.50;5.43;;;11.20;99.90;;;;;;4997648;28;20029;-72
2023/05/25 01:39:21;;;;;;;9.60;4.75;;;11.30;99.90;;;;;;4997600;28;20022;-72
2023/05/25 01:41:47;;;;;;;16.05;5.28;;;11.50;99.90;;;;;;4996940;28;20121;-72
2023/05/25 01:44:12;;;;;;;11.02;4.95;;;11.40;99.90;;;;;;4996811;28;20117;-72
2023/05/25 01:46:39;;;;;;;18.77;5.70;;;11.40;99.90;;;;;;4996960;28;20113;-72
2023/05/25 01:49:15;;;;;;;13.50;5.55;;;11.40;99.90;;;;;;4996951;28;20050;-72
2023/05/25 01:51:54;;;;;;;15.32;4.82;;;11.10;99.90;;;;;;4997554;28;20022;-72
2023/05/25 01:54:22;;;;;;;13.95;4.70;;;11.20;99.90;;;;;;4996605;28;20022;-72
2023/05/25 01:56:50;;;;;;;16.40;5.43;;;11.10;99.90;;;;;;4996865;28;20026;-72
2023/05/25 01:59:19;;;;;;;14.43;5.00;;;11.10;99.90;;;;;;4997015;28;20031;-72
2023/05/25 02:01:47;;;;;;;14.07;6.03;;;11.00;99.90;;;;;;4997563;28;20030;-72
2023/05/25 02:04:15;;;;;;;18.02;5.15;;;10.90;99.90;;;;;;4996470;28;20023;-72
2023/05/25 02:06:41;;;;;;;17.80;5.65;;;11.00;99.90;;;;;;4996626;28;20023;-72
2023/05/25 02:09:06;;;;;;;17.55;5.43;;;11.00;99.90;;;;;;4996789;28;20029;-72
2023/05/25 02:11:32;;;;;;;17.58;6.03;;;10.90;99.90;;;;;;4996338;28;20050;-72
2023/05/25 02:13:57;;;;;;;21.10;5.85;;;11.00;99.90;;;;;;4996633;28;20089;-72
2023/05/25 02:16:23;;;;;;;19.73;5.53;;;11.00;99.90;;;;;;4996386;28;20030;-72
2023/05/25 02:18:49;;;;;;;14.88;4.75;;;11.00;99.90;;;;;;4996542;28;20022;-72
2023/05/25 02:21:15;;;;;;;11.27;5.13;;;11.10;99.90;;;;;;4997186;28;20149;-72
2023/05/25 02:23:41;;;;;;;23.27;5.57;;;11.10;99.90;;;;;;4996389;28;20050;-72
2023/05/25 02:26:07;;;;;;;16.55;5.95;;;11.10;99.90;;;;;;4996372;28;20109;-72
2023/05/25 02:28:32;;;;;;;19.73;6.15;;;11.00;99.90;;;;;;4996244;28;20073;-72
2023/05/25 02:30:58;;;;;;;20.55;5.85;;;10.70;99.90;;;;;;4996272;28;20037;-72
2023/05/25 02:33:24;;;;;;;13.60;5.45;;;10.50;99.90;;;;;;4996295;28;20027;-72
2023/05/25 02:35:49;;;;;;;11.20;4.80;;;10.60;99.90;;;;;;4996236;28;20022;-72
2023/05/25 02:38:15;;;;;;;19.50;5.43;;;10.70;99.90;;;;;;4996305;28;20038;-72
2023/05/25 02:40:40;;;;;;;20.95;5.80;;;10.80;99.90;;;;;;4996719;28;20049;-72
2023/05/25 02:43:06;;;;;;;20.45;5.72;;;10.90;99.90;;;;;;4999937;28;20019;-72
2023/05/25 02:45:31;;;;;;;14.18;6.10;;;10.90;99.90;;;;;;5000566;28;20073;-72
2023/05/25 02:47:57;;;;;;;19.48;5.90;;;10.90;99.90;;;;;;4999696;28;20027;-72
2023/05/25 02:50:22;;;;;;;15.02;5.38;;;10.90;99.90;;;;;;4999972;28;20117;-72
2023/05/25 02:52:48;;;;;;;15.70;6.07;;;11.00;99.90;;;;;;5000357;28;20105;-72
2023/05/25 02:55:13;;;;;;;20.75;6.20;;;11.00;99.90;;;;;;4999623;28;20122;-72
2023/05/25 02:57:39;;;;;;;15.88;6.05;;;11.00;99.90;;;;;;5000289;28;20181;-72
2023/05/25 03:00:06;;;;;;;17.23;6.70;;;11.00;99.90;;;;;;4999420;28;20031;-72
2023/05/25 03:02:32;;;;;;;22.35;6.70;;;10.80;99.90;;;;;;4999404;28;20031;-72
2023/05/25 03:04:58;;;;;;;23.60;6.13;;;10.80;99.90;;;;;;5000207;28;20019;-72
2023/05/25 03:07:25;;;;;;;15.40;6.15;;;10.70;99.90;;;;;;5000434;28;20018;-72
2023/05/25 03:09:51;;;;;;;21.67;5.68;;;10.50;99.90;;;;;;4999344;28;20022;-72
2023/05/25 03:12:16;;;;;;;21.88;7.22;;;10.60;99.90;;;;;;4999383;28;20022;-72
2023/05/25 03:14:42;;;;;;;20.92;6.30;;;10.60;99.90;;;;;;4999298;28;20034;-72
2023/05/25 03:17:07;;;;;;;19.25;6.15;;;10.30;99.90;;;;;;4999133;28;20102;-72
2023/05/25 03:19:33;;;;;;;15.52;6.97;;;10.40;99.90;;;;;;5000031;28;20094;-72
2023/05/25 03:21:59;;;;;;;14.73;5.93;;;10.10;99.90;;;;;;4998914;28;20086;-72
2023/05/25 03:24:25;;;;;;;18.50;6.72;;;10.10;99.90;;;;;;4998899;28;20030;-72
2023/05/25 03:26:51;;;;;;;22.55;7.25;;;10.20;99.90;;;;;;4999912;28;20065;-72
2023/05/25 03:29:17;;;;;;;21.35;7.00;;;10.30;99.90;;;;;;4999041;28;20026;-72
2023/05/25 03:31:42;;;;;;;18.33;7.22;;;10.30;99.90;;;;;;4999353;28;20022;-72
2023/05/25 03:34:08;;;;;;;19.10;6.43;;;10.00;99.90;;;;;;4998955;28;20031;-72
2023/05/25 03:36:34;;;;;;;20.52;6.57;;;10.20;99.90;;;;;;4998756;28;20022;-72
2023/05/25 03:38:59;;;;;;;18.65;5.95;;;10.20;99.90;;;;;;4999445;28;20030;-72
2023/05/25 03:41:25;;;;;;;17.55;6.45;;;10.30;99.90;;;;;;4999588;28;20027;-72
2023/05/25 03:43:51;;;;;;;16.58;6.82;;;10.30;99.90;;;;;;4999450;28;20042;-72
2023/05/25 03:46:17;;;;;;;20.63;6.07;;;10.30;99.90;;;;;;4999550;28;20068;-72
2023/05/25 03:48:42;;;;;;;18.23;7.05;;;10.30;99.90;;;;;;4998539;28;20041;-72
2023/05/25 03:51:08;;;;;;;23.85;6.88;;;10.30;99.90;;;;;;4998349;28;20033;-72
2023/05/25 03:53:33;;;;;;;16.00;6.60;;;10.30;99.90;;;;;;4997982;28;20026;-72
2023/05/25 03:55:59;;;;;;;18.17;7.07;;;10.20;99.90;;;;;;4998710;28;20038;-72
2023/05/25 03:58:25;;;;;;;17.80;6.70;;;10.30;99.90;;;;;;4998654;28;20026;-72
2023/05/25 04:00:51;;;;;;;19.10;6.68;;;10.20;99.90;;;;;;4998549;28;20033;-72
2023/05/25 04:03:17;;;;;;;17.63;7.13;;;10.00;99.90;;;;;;4998128;28;20037;-72
2023/05/25 04:05:45;;;;;;;16.05;6.82;;;10.00;99.90;;;;;;4998895;28;20058;-72
2023/05/25 04:08:16;;;;;;;22.50;6.55;;;10.00;99.90;;;;;;4998236;28;20028;-72
2023/05/25 04:10:46;;;;;;;24.30;7.32;;;10.10;99.90;;;;;;4998174;28;20050;-72
2023/05/25 04:13:12;;;;;;;20.48;6.57;;;10.00;99.90;;;;;;4998417;28;20038;-72
2023/05/25 04:15:38;;;;;;;24.42;7.07;;;10.40;99.90;;;;;;4999203;28;20094;-72
2023/05/25 04:18:03;;;;;;;15.88;7.85;;;10.40;99.90;;;;;;4998361;28;20165;-72
2023/05/25 04:20:29;;;;;;;20.42;7.13;;;10.30;99.90;;;;;;4998397;28;20023;-72
2023/05/25 04:22:55;;;;;;;21.10;6.45;;;10.50;99.90;;;;;;4997675;28;20031;-72
2023/05/25 04:25:21;;;;;;;20.80;6.45;;;10.60;99.90;;;;;;4998208;28;20023;-72
2023/05/25 04:27:47;;;;;;;17.52;6.93;;;10.60;99.90;;;;;;4997782;28;20023;-72
2023/05/25 04:30:14;;;;;;;29.90;7.38;;;10.70;99.90;;;;;;4998058;28;20049;-72
2023/05/25 04:32:39;;;;;;;17.80;7.18;;;10.70;99.90;;;;;;4998129;28;20077;-72
2023/05/25 04:35:05;;;;;;;16.02;6.38;;;10.40;99.90;;;;;;4997843;28;20265;-72
2023/05/25 04:37:32;;;;;;;22.80;6.75;;;10.40;99.90;;;;;;4998667;28;20113;-72
2023/05/25 04:39:57;;;;;;;15.85;6.43;;;10.50;99.90;;;;;;4998276;28;20045;-72
2023/05/25 04:42:23;;;;;;;23.70;8.75;;;10.50;99.90;;;;;;4997623;28;20060;-72
2023/05/25 04:44:52;;;;;;;20.02;6.65;;;10.70;99.90;;;;;;4997928;28;20015;-72
2023/05/25 04:47:18;;;;;;;14.60;6.03;;;10.80;99.90;;;;;;4997757;28;20027;-72
2023/05/25 04:49:43;;;;;;;16.58;6.00;;;10.90;99.90;;;;;;4998333;28;20029;-72
2023/05/25 04:52:09;;;;;;;28.92;7.38;;;10.90;99.90;;;;;;4997598;28;20034;-72
2023/05/25 04:54:34;;;;;;;16.65;6.65;;;11.00;99.90;;;;;;4997746;28;20081;-72
2023/05/25 04:57:01;;;;;;;18.05;7.35;;;11.00;99.90;;;;;;4997891;28;20061;-72
2023/05/25 04:59:26;;;;;;;19.88;6.30;;;10.70;99.90;;;;;;4997962;28;20030;-72
2023/05/25 05:01:52;;;;;;;22.88;7.55;;;10.60;99.90;;;;;;4997141;28;20113;-72
2023/05/25 05:04:17;;;;;;;15.60;6.82;;;10.90;99.90;;;;;;4996806;28;20019;-72
2023/05/25 05:06:43;;;;;;;18.65;6.88;;;11.00;99.90;;;;;;4997292;28;20180;-72
2023/05/25 05:09:08;;;;;;;26.55;7.30;;;10.90;99.90;;;;;;4997861;28;20076;-72
2023/05/25 05:11:34;;;;;;;16.45;7.57;;;11.00;99.90;;;;;;4996973;28;20022;-72
2023/05/25 05:13:59;;;;;;;15.70;6.07;;;11.10;99.90;;;;;;4997109;28;20033;-72
2023/05/25 05:16:25;;;;;;;19.65;6.45;;;11.30;99.90;;;;;;4998042;28;20034;-72
2023/05/25 05:18:51;;;;;;;20.58;8.50;;;11.40;99.90;;;;;;4997305;28;20122;-72
2023/05/25 05:21:16;;;;;;;19.73;7.25;;;11.30;99.90;;;;;;4996826;28;20038;-72
2023/05/25 05:23:42;;;;;;;18.08;7.63;;;11.30;99.90;;;;;;4997154;28;20073;-72
2023/05/25 05:26:10;;;;;;;20.52;7.15;;;11.20;99.90;;;;;;4997876;28;20085;-72
2023/05/25 05:28:36;;;;;;;14.18;7.30;;;11.20;99.90;;;;;;4997666;28;20057;-72
2023/05/25 05:31:01;;;;;;;23.55;7.60;;;11.20;99.90;;;;;;4996772;28;20030;-72
2023/05/25 05:33:27;;;;;;;18.25;7.07;;;11.20;99.90;;;;;;4996844;28;20023;-72
2023/05/25 05:35:53;;;;;;;20.63;7.22;;;11.40;99.90;;;;;;4996806;28;20058;-72
2023/05/25 05:38:18;;;;;;;20.70;7.95;;;11.40;99.90;;;;;;4996797;28;20113;-72
2023/05/25 05:40:44;;;;;;;24.65;8.07;;;11.50;99.90;;;;;;4996889;28;20121;-72
2023/05/25 05:43:11;;;;;;;21.35;7.38;;;11.50;99.90;;;;;;4996703;28;20068;-72
2023/05/25 05:45:37;;;;;;;19.48;7.00;;;11.50;99.90;;;;;;4997267;28;20117;-72
2023/05/25 05:48:08;;;;;;;28.85;9.35;;;11.40;99.90;;;;;;4997554;28;20077;-72
2023/05/25 05:50:37;;;;;;;17.65;7.80;;;11.50;99.90;;;;;;4996655;28;20026;-72
2023/05/25 05:53:04;;;;;;;23.17;7.35;;;11.50;99.90;;;;;;4997525;28;20057;-72
2023/05/25 05:55:29;;;;;;;24.05;7.95;;;11.60;99.90;;;;;;4996619;28;20022;-72
2023/05/25 05:57:55;;;;;;;17.02;6.97;;;11.80;99.90;;;;;;4997152;28;20029;-72
2023/05/25 06:00:20;;;;;;;25.42;7.70;;;11.70;99.90;;;;;;4996444;28;20029;-72
2023/05/25 06:02:46;;;;;;;16.95;8.15;;;11.70;99.90;;;;;;4996369;28;20026;-72
2023/05/25 06:05:12;;;;;;;20.40;7.43;;;11.80;99.90;;;;;;4996721;28;20117;-72
2023/05/25 06:07:37;;;;;;;20.80;7.72;;;11.70;99.90;;;;;;4996749;28;20026;-72
2023/05/25 06:10:04;;;;;;;22.80;8.90;;;11.90;99.90;;;;;;4996683;28;20057;-72
2023/05/25 06:12:30;;;;;;;19.50;7.85;;;12.00;99.90;;;;;;4996275;28;20022;-72
2023/05/25 06:14:55;;;;;;;19.35;8.25;;;12.00;99.90;;;;;;4996460;28;20056;-72
2023/05/25 06:17:22;;;;;;;22.80;7.10;;;12.10;99.90;;;;;;5000661;28;20037;-72
2023/05/25 06:19:48;;;;;;;19.92;7.45;;;12.30;99.90;;;;;;5001129;28;20018;-72
2023/05/25 06:22:14;;;;;;;22.45;8.10;;;12.40;99.90;;;;;;5000668;28;20023;-75
2023/05/25 06:24:40;;;;;;;20.25;7.93;;;12.50;99.90;;;;;;5000955;28;20027;-75
2023/05/25 06:27:06;;;;;;;20.25;6.88;;;12.70;99.90;;;;;;5000459;28;20113;-75
2023/05/25 06:29:31;;;;;;;18.42;7.93;;;12.80;99.90;;;;;;5000928;28;20173;-75
2023/05/25 06:31:57;;;;;;;20.85;8.27;;;12.80;99.90;;;;;;5000713;28;20045;-75
2023/05/25 06:34:22;;;;;;;23.42;7.80;;;13.00;99.90;;;;;;5000961;28;20025;-75
2023/05/25 06:36:48;;;;;;;17.58;7.65;;;13.00;99.90;;;;;;5000179;28;20128;-75
2023/05/25 06:39:14;;;;;;;16.42;7.85;;;13.00;99.90;;;;;;5001046;28;20107;-75
2023/05/25 06:41:39;;;;;;;20.77;7.75;;;13.10;99.90;;;;;;4999777;28;20027;-75
2023/05/25 06:44:06;;;;;;;12.95;7.60;;;13.10;99.90;;;;;;5000340;28;20022;-75
2023/05/25 06:46:32;;;;;;;17.35;7.53;;;13.30;99.90;;;;;;5000676;28;20034;-75
2023/05/25 06:48:59;;;;;;;21.40;7.40;;;13.30;99.90;;;;;;4999806;28;20026;-75
2023/05/25 06:51:26;;;;;;;20.98;8.10;;;13.30;99.90;;;;;;4999642;28;20037;-75
2023/05/25 06:53:52;;;;;;;19.88;7.28;;;13.40;99.90;;;;;;5000956;28;20026;-75
2023/05/25 06:56:17;;;;;;;16.95;7.60;;;13.40;99.90;;;;;;4999539;28;20032;-76
2023/05/25 06:58:43;;;;;;;20.30;7.10;;;13.40;99.90;;;;;;5000601;28;20033;-75
2023/05/25 07:01:08;;;;;;;21.10;7.45;;;13.50;99.90;;;;;;4999244;28;20117;-75
2023/05/25 07:03:35;;;;;;;20.13;7.47;;;13.40;99.90;;;;;;4999669;28;20129;-75
2023/05/25 07:06:00;;;;;;;17.75;6.63;;;13.40;99.90;;;;;;4999724;28;20015;-75
2023/05/25 07:08:26;;;;;;;23.38;7.70;;;13.40;99.90;;;;;;4999385;28;20030;-75
2023/05/25 07:10:51;;;;;;;21.05;6.45;;;13.50;99.90;;;;;;4999438;28;20030;-75
2023/05/25 07:13:17;;;;;;;20.75;7.50;;;13.70;99.90;;;;;;4999189;28;20030;-75
2023/05/25 07:15:42;;;;;;;16.65;6.93;;;13.80;99.90;;;;;;4999624;28;20026;-75
2023/05/25 07:18:11;;;;;;;16.40;6.38;;;13.90;99.90;;;;;;4999502;28;20027;-75
2023/05/25 07:20:38;;;;;;;20.10;7.10;;;14.00;99.90;;;;;;5000187;28;20022;-74
2023/05/25 07:23:03;;;;;;;15.93;7.20;;;14.10;99.90;;;;;;5000064;28;20031;-76
2023/05/25 07:25:29;;;;;;;16.17;6.30;;;14.20;99.90;;;;;;5000056;28;20072;-76
2023/05/25 07:27:54;;;;;;;18.58;7.78;;;14.30;99.90;;;;;;4998632;28;20022;-73
2023/05/25 07:30:20;;;;;;;24.30;7.30;;;14.40;99.90;;;;;;5000091;28;20029;-75
2023/05/25 07:32:45;;;;;;;20.35;7.78;;;14.30;99.90;;;;;;4999146;28;20030;-76
2023/05/25 07:35:11;;;;;;;21.42;7.03;;;14.50;99.90;;;;;;4999368;28;20081;-75
2023/05/25 07:37:36;;;;;;;20.83;8.20;;;14.50;99.90;;;;;;4999972;28;20027;-80
2023/05/25 07:40:02;;;;;;;19.13;7.22;;;14.50;99.90;;;;;;4999432;28;20056;-79
2023/05/25 07:42:33;;;;;;;19.35;7.72;;;14.50;99.90;;;;;;4999356;28;20025;-79
2023/05/25 07:44:59;;;;;;;23.70;7.10;;;14.50;99.90;;;;;;4999264;28;20018;-79
2023/05/25 07:47:25;;;;;;;21.70;8.55;;;14.50;99.90;;;;;;4999897;28;20027;-76
2023/05/25 07:49:51;;;;;;;24.65;7.88;;;14.50;99.90;;;;;;4998812;28;20034;-77
2023/05/25 07:52:17;;;;;;;18.95;8.65;;;14.40;99.90;;;;;;4998594;28;20062;-78
2023/05/25 07:54:44;;;;;;;14.88;6.95;;;14.60;99.90;;;;;;4998723;28;20114;-77
2023/05/25 07:57:10;;;;;;;15.55;6.78;;;14.60;99.90;;;;;;4999285;28;20126;-77
2023/05/25 07:59:35;;;;;;;13.15;6.97;;;14.70;99.90;;;;;;4998886;28;20112;-78
2023/05/25 08:02:02;;;;;;;18.42;7.00;;;15.00;99.90;;;;;;4998978;28;20069;-78
2023/05/25 08:04:29;;;;;;;18.98;6.65;;;15.00;99.90;;;;;;4999118;28;20030;-78
2023/05/25 08:06:55;;;;;;;14.88;7.25;;;15.10;99.90;;;;;;4998662;28;20049;-75
2023/05/25 08:09:20;;;;;;;22.17;6.80;;;15.20;99.90;;;;;;4999242;28;20018;-73
2023/05/25 08:11:46;;;;;;;21.75;6.57;;;15.10;99.90;;;;;;4998175;28;20077;-74
2023/05/25 08:14:12;;;;;;;14.35;5.75;;;15.20;99.90;;;;;;4998081;28;20114;-72
2023/05/25 08:16:37;;;;;;;16.45;6.45;;;15.20;99.90;;;;;;4998697;28;20030;-72
2023/05/25 08:19:03;;;;;;;14.35;6.18;;;15.30;99.90;;;;;;4998133;28;20030;-73
2023/05/25 08:21:28;;;;;;;18.77;6.80;;;15.40;99.90;;;;;;4998551;28;20080;-71
2023/05/25 08:23:54;;;;;;;13.52;6.72;;;15.40;99.90;;;;;;4998013;28;20057;-72
2023/05/25 08:26:21;;;;;;;17.02;6.20;;;15.40;99.90;;;;;;4997969;28;20074;-72
2023/05/25 08:28:47;;;;;;;12.77;5.25;;;15.40;99.90;;;;;;4997875;28;20026;-70
2023/05/25 08:31:12;;;;;;;14.82;6.28;;;15.40;99.90;;;;;;4997850;28;20030;-70
2023/05/25 08:33:38;;;;;;;20.17;5.82;;;15.40;99.90;;;;;;4997971;28;20022;-70
2023/05/25 08:36:04;;;;;;;12.82;6.38;;;15.50;99.90;;;;;;4997649;28;20038;-70
2023/05/25 08:38:30;;;;;;;10.52;5.53;;;15.50;99.90;;;;;;4998589;28;20019;-70
2023/05/25 08:41:03;;;;;;;14.95;5.45;;;15.60;99.90;;;;;;4997613;28;20096;-70
2023/05/25 08:43:28;;;;;;;17.48;5.05;;;15.70;99.90;;;;;;4997539;28;20018;-70
2023/05/25 08:46:01;;;;;;;13.20;5.40;;;15.80;99.90;;;;;;4998348;28;20076;-70
2023/05/25 08:48:29;;;;;;;13.38;5.15;;;16.10;99.90;;;;;;4997570;28;20023;-70
2023/05/25 08:50:59;;;;;;;12.40;5.47;;;16.00;99.90;;;;;;4997507;28;20022;-70
2023/05/25 08:53:26;;;;;;;13.48;4.68;;;16.10;99.90;;;;;;4997508;28;20033;-70
2023/05/25 08:55:54;;;;;;;16.00;5.57;;;16.20;99.90;;;;;;4997464;28;20035;-70
2023/05/25 08:58:25;;;;;;;11.27;5.50;;;16.20;99.90;;;;;;4998150;28;20030;-75
2023/05/25 09:00:55;;;;;;;9.85;4.30;;;16.40;99.90;;;;;;4997356;28;20034;-76
2023/05/25 09:03:22;;;;;;;10.18;4.55;;;16.50;99.90;;;;;;4997382;28;20031;-75
2023/05/25 09:05:48;;;;;;;13.93;5.22;;;16.70;99.90;;;;;;4998190;28;20022;-76
2023/05/25 09:08:15;;;;;;;9.40;4.65;;;16.70;99.90;;;;;;4998130;28;20027;-76
2023/05/25 09:10:41;;;;;;;13.43;4.97;;;16.90;99.90;;;;;;4997153;28;20027;-76
2023/05/25 09:13:07;;;;;;;13.13;4.43;;;17.00;99.90;;;;;;4997279;28;20030;-75
2023/05/25 09:15:33;;;;;;;6.85;4.60;;;16.90;99.90;;;;;;4997153;28;20030;-76
2023/05/25 09:17:59;;;;;;;8.18;3.97;;;17.10;99.90;;;;;;4997283;28;20037;-76
2023/05/25 09:20:30;;;;;;;8.73;3.92;;;17.10;99.90;;;;;;4997316;28;20113;-75
2023/05/25 09:22:57;;;;;;;9.88;5.05;;;17.40;99.90;;;;;;4997388;28;20035;-75
2023/05/25 09:25:25;;;;;;;11.43;4.53;;;17.40;99.90;;;;;;4998264;28;20058;-76
2023/05/25 09:27:50;;;;;;;14.00;5.07;;;17.40;99.90;;;;;;4996791;28;20078;-77
2023/05/25 09:30:16;;;;;;;9.15;4.07;;;17.50;99.90;;;;;;4997281;28;20217;-77
2023/05/25 09:32:41;;;;;;;10.63;4.57;;;17.60;99.90;;;;;;4997088;28;20019;-77
2023/05/25 09:35:14;;;;;;;11.23;3.90;;;17.60;99.90;;;;;;4996687;28;20053;-77
2023/05/25 09:37:43;;;;;;;20.13;5.07;;;17.80;99.90;;;;;;4998014;28;20022;-72
2023/05/25 09:40:10;;;;;;;13.55;4.65;;;17.80;99.90;;;;;;4997500;28;20022;-70
2023/05/25 09:42:38;;;;;;;12.50;4.53;;;17.80;99.90;;;;;;4997364;28;20031;-70
2023/05/25 09:45:05;;;;;;;11.52;3.80;;;17.80;99.90;;;;;;4997387;28;20026;-71
2023/05/25 09:47:31;;;;;;;11.73;4.40;;;17.80;99.90;;;;;;4997621;28;20026;-70
2023/05/25 09:49:57;;;;;;;8.98;3.92;;;17.80;99.90;;;;;;4996675;28;20027;-71
2023/05/25 09:52:23;;;;;;;9.98;4.13;;;18.10;99.90;;;;;;5000162;28;20026;-71
2023/05/25 09:54:50;;;;;;;11.02;4.60;;;18.10;99.90;;;;;;5002008;28;20037;-71
2023/05/25 09:57:17;;;;;;;7.93;3.70;;;18.50;99.90;;;;;;5000640;28;20026;-70
2023/05/25 09:59:44;;;;;;;15.13;4.05;;;18.70;99.90;;;;;;5001593;28;20030;-72
2023/05/25 10:02:10;;;;;;;12.40;4.03;;;18.70;99.90;;;;;;5000743;28;20023;-69
2023/05/25 10:04:35;;;;;;;9.93;3.70;;;18.60;99.90;;;;;;5000888;28;20036;-69
2023/05/25 10:07:03;;;;;;;13.30;4.10;;;18.70;99.90;;;;;;5001673;28;20109;-69
2023/05/25 10:09:29;;;;;;;12.85;4.35;;;18.80;99.90;;;;;;5000347;28;20022;-69
2023/05/25 10:11:58;;;;;;;11.63;3.95;;;19.00;99.90;;;;;;5000457;28;20084;-69
2023/05/25 10:14:26;;;;;;;11.20;3.90;;;19.10;99.90;;;;;;5001207;28;20026;-69
2023/05/25 10:16:54;;;;;;;6.93;3.25;;;19.40;99.90;;;;;;5000374;28;20029;-69
2023/05/25 10:20:05;;;;;;;10.52;4.68;;;19.50;99.90;;;;;;5001198;28;20030;-69
2023/05/25 10:22:35;;;;;;;11.65;3.92;;;19.40;99.90;;;;;;4963760;28;20054;-69
2023/05/25 10:25:07;;;;;;;9.73;4.18;;;19.50;99.90;;;;;;4964235;28;20027;-69
2023/05/25 10:27:45;;;;;;;9.57;3.92;;;19.50;99.90;;;;;;4964356;28;20053;-69
2023/05/25 10:30:13;;;;;;;6.70;4.43;;;19.80;99.90;;;;;;4964139;28;20026;-69
2023/05/25 10:32:41;;;;;;;11.68;4.68;;;20.20;99.90;;;;;;4979940;28;20030;-69
2023/05/25 10:35:08;;;;;;;13.18;4.57;;;20.10;99.90;;;;;;4963686;28;20031;-69
2023/05/25 10:37:35;;;;;;;8.65;4.60;;;20.40;99.90;;;;;;4980087;28;20031;-69
2023/05/25 10:40:02;;;;;;;8.50;3.33;;;20.70;99.90;;;;;;4963580;28;20026;-69
2023/05/25 10:42:29;;;;;;;13.63;4.35;;;21.00;99.90;;;;;;4963502;28;20054;-69
2023/05/25 10:44:56;;;;;;;11.35;4.28;;;21.20;99.90;;;;;;4963464;28;20110;-69
2023/05/25 10:47:22;;;;;;;8.30;4.30;;;21.00;99.90;;;;;;4979725;28;20022;-69
2023/05/25 10:49:56;;;;;;;10.77;4.13;;;21.10;99.90;;;;;;4963469;28;20035;-66
2023/05/25 10:52:30;;;;;;;11.15;3.95;;;21.20;99.90;;;;;;4979613;28;20094;-66
2023/05/25 10:54:57;;;;;;;7.10;3.60;;;21.20;99.90;;;;;;4979714;28;20037;-67
2023/05/25 10:57:24;;;;;;;9.68;4.65;;;21.40;99.90;;;;;;4998155;28;20071;-66
2023/05/25 10:59:51;;;;;;;11.20;4.05;;;21.30;99.90;;;;;;4999498;28;20109;-66
2023/05/25 11:02:22;;;;;;;9.98;4.75;;;21.30;99.90;;;;;;4998331;28;20033;-66
2023/05/25 11:04:48;;;;;;;8.50;3.97;;;21.50;99.90;;;;;;5000691;28;20022;-67
2023/05/25 11:07:15;;;;;;;8.20;4.13;;;21.80;99.90;;;;;;4999700;28;20026;-66
2023/05/25 11:09:43;;;;;;;17.23;4.72;;;22.10;99.90;;;;;;5000230;28;20025;-66
2023/05/25 11:12:19;;;;;;;12.35;4.85;;;21.90;99.90;;;;;;4999427;28;20046;-67
2023/05/25 11:15:14;;;;;;;10.50;3.95;;;22.00;99.90;;;;;;4999217;28;20050;-67
2023/05/25 11:17:58;;;;;;;10.32;4.30;;;22.30;99.90;;;;;;5000340;28;20034;-67
2023/05/25 11:20:27;;;;;;;8.85;4.53;;;22.50;99.90;;;;;;4998920;28;20034;-67
2023/05/25 11:22:52;;;;;;;8.65;4.13;;;22.70;99.90;;;;;;4999217;28;20036;-67
2023/05/25 11:25:37;;;;;;;9.15;4.07;;;22.30;99.90;;;;;;4999996;28;20022;-67
2023/05/25 11:28:05;;;;;;;9.13;4.25;;;22.40;99.90;;;;;;4999903;28;20026;-67
2023/05/25 11:30:31;;;;;;;12.30;4.68;;;22.80;99.90;;;;;;4998990;28;20026;-67
2023/05/25 11:33:01;;;;;;;9.18;4.05;;;22.70;99.90;;;;;;4999781;28;20045;-67
2023/05/25 11:35:27;;;;;;;7.20;4.60;;;23.00;99.90;;;;;;4999707;28;20047;-67
2023/05/25 11:37:53;;;;;;;9.50;4.75;;;23.20;99.90;;;;;;4999802;28;20027;-67
2023/05/25 11:40:22;;;;;;;8.73;4.43;;;23.30;99.90;;;;;;4999626;28;20022;-69
2023/05/25 11:42:49;;;;;;;11.70;4.60;;;23.40;99.90;;;;;;4998606;28;20034;-68
2023/05/25 11:45:16;;;;;;;7.90;4.35;;;23.40;99.90;;;;;;4999628;28;20026;-69
2023/05/25 11:47:42;;;;;;;11.05;4.88;;;23.40;99.90;;;;;;4998554;28;20022;-69
2023/05/25 11:50:15;;;;;;;11.52;4.25;;;23.00;99.90;;;;;;4998938;28;20081;-70
2023/05/25 11:52:40;;;;;;;12.93;4.82;;;23.10;99.90;;;;;;4999345;28;20026;-70
2023/05/25 11:55:13;;;;;;;8.25;3.80;;;23.70;99.90;;;;;;4999553;28;20026;-70
2023/05/25 11:57:39;;;;;;;5.53;3.50;;;23.80;99.90;;;;;;4999339;28;20081;-67
2023/05/25 12:00:05;;;;;;;8.50;4.03;;;23.50;99.90;;;;;;4998476;28;20026;-68
2023/05/25 12:02:37;;;;;;;10.05;3.67;;;23.60;99.90;;;;;;4998233;28;20030;-68
2023/05/25 12:05:03;;;;;;;10.45;4.22;;;24.00;99.90;;;;;;4998439;28;20049;-68
2023/05/25 12:07:30;;;;;;;8.43;4.00;;;24.10;99.90;;;;;;4999098;28;20030;-68
2023/05/25 12:10:13;;;;;;;9.50;3.55;;;24.40;99.90;;;;;;4998651;28;20022;-68
2023/05/25 12:12:43;;;;;;;7.15;4.22;;;24.60;99.90;;;;;;4998985;28;20018;-69
2023/05/25 12:15:11;;;;;;;10.13;4.13;;;24.80;99.90;;;;;;4997725;28;20018;-68
2023/05/25 12:17:41;;;;;;;10.55;4.60;;;24.80;99.90;;;;;;4998068;28;20022;-70
2023/05/25 12:20:08;;;;;;;7.57;3.85;;;24.90;99.90;;;;;;4998956;28;20030;-69
2023/05/25 12:22:34;;;;;;;7.20;3.85;;;24.90;99.90;;;;;;5022060;23;20113;-67
2023/05/25 12:25:00;;;;;;;8.77;4.22;;;24.50;99.10;;;;;;4998861;28;20027;-67
2023/05/25 12:27:25;;;;;;;7.78;3.85;;;24.10;98.70;;;;;;4998037;28;20026;-67
2023/05/25 12:29:52;;;;;;;10.32;4.07;;;24.30;99.90;;;;;;4998935;28;20019;-67
2023/05/25 12:32:17;;;;;;;11.43;4.05;;;24.30;98.50;;;;;;4998061;28;20030;-67
2023/05/25 12:34:44;;;;;;;5.35;3.58;;;24.10;98.90;;;;;;4998824;28;20031;-67
2023/05/25 12:37:20;;;;;;;8.68;3.58;;;24.10;98.20;;;;;;4997871;28;20058;-67